Opa-locka Executive Airport
KOPF : now visible

Airfield :











YOU CAN JOIN US ON...

 
LOGIN :

Register | Disclaimer

   EN    FR    IT 

 









Legend :    VFR   Marginal VFR   IFR   Intensive IFR   Very Intensive IFR
Visi :
Ceiling :
>= 8 km
>= 3000ft
5 to 8 km
1000 to 3000 ft
1500m to 5 km
500 to 1000 ft
800 to 1500m
200 to 500 ft
< 800m
< 200 ft
Symbols :   Thunderstorms  Fog  Heavy snow  Heavy precipitations  Wind > 20 kt






- Airport Elevation : 8 ft


KOPF - Opa-locka Executive

CURRENT METAR :
  • 261753Z 19013KT 10SM CLR 30/24 A2989 RMK AO2 SLP122 T03000239 10306 20256 58004 $

EXPIRED METARs :
  • 261653Z 18008KT 10SM CLR 28/22 A2992 RMK AO2 SLP132 T02830222 $
  • 261553Z 20015KT 10SM SCT018 SCT022 28/22 A2991 RMK AO2 PK WND 21031/1534 LTG DSNT SE SLP130 T02780217 $

TAF KOPF
Valid from the 26 at 18:00 until the 27 at 18:00 UTC


261741Z 2618/2718 19012KT P6SM VCTS FEW015 SCT025CB BKN035
TEMPO 2618/2621 VRB15G25KT 3SM TSRA BKN025CB
FM270200 17005KT P6SM SCT020 BKN035
FM271400 17012KT P6SM VCSH SCT030 BKN040
KZMA FIR / North America



MET'MAP, your aeronautical weather chart ! - Copyright ORBIFLY December 2007 - Disclaimer

ORBIFLY MET'MAP TEAM :

Programming & Development : Alexandra Zaïnal
Concept & original design : Baudouin d'Aumeries
Assistance for programming : Marc-Olivier Méhu
Technical & hardware support : Manuel Goepfert

Contact : metmap@orbifly.com




SOURCES & CREDITS :

   NOAA       Earth
Advisory